Time;durP1;ratioP1;P1;durP2;ratioP2;P2;SDS_P1;SDS_P2;PMS_P1;PMS_P2;Temp;Humidity;BMP_temperature;BMP_pressure;BME280_temperature;BME280_humidity;BME280_pressure;Samples;Min_cycle;Max_cycle;Signal;HPM_P1;HPM_P2
2021/01/14 00:01:45;;;;;;;2.35;0.90;;;;;;;;;;5262558;27;20106;-95
2021/01/14 00:04:14;;;;;;;1.87;0.80;;;;;;;;;;5266371;27;20115;-96
2021/01/14 00:06:42;;;;;;;3.55;1.10;;;;;;;;;;5281077;27;20068;-96
2021/01/14 00:09:10;;;;;;;9.07;0.70;;;;;;;;;;5281737;27;20423;-95
2021/01/14 00:11:39;;;;;;;5.28;0.95;;;;;;;;;;5261599;27;20100;-95
2021/01/14 00:14:07;;;;;;;4.32;0.80;;;;;;;;;;5263281;27;20055;-96
2021/01/14 00:16:36;;;;;;;4.65;1.10;;;;;;;;;;5262409;27;20107;-95
2021/01/14 00:19:05;;;;;;;2.20;0.77;;;;;;;;;;5262854;27;20404;-94
2021/01/14 00:21:40;;;;;;;2.87;1.05;;;;;;;;;;5280233;27;20316;-96
2021/01/14 00:24:10;;;;;;;6.45;1.20;;;;;;;;;;5263379;27;20027;-95
2021/01/14 00:26:40;;;;;;;1.80;0.90;;;;;;;;;;5260502;27;20069;-95
2021/01/14 00:29:08;;;;;;;2.33;0.93;;;;;;;;;;5263114;27;20026;-95
2021/01/14 00:31:37;;;;;;;4.93;1.05;;;;;;;;;;5262832;27;20028;-94
2021/01/14 00:34:05;;;;;;;3.70;0.75;;;;;;;;;;5262692;27;20073;-96
2021/01/14 00:39:26;;;;;;;12.07;0.98;;;;;;;;;;5280855;27;20091;-95
2021/01/14 00:41:55;;;;;;;1.55;0.82;;;;;;;;;;5280483;27;20029;-96
2021/01/14 00:44:24;;;;;;;1.75;0.80;;;;;;;;;;5262731;27;20040;-96
2021/01/14 00:46:56;;;;;;;4.47;0.90;;;;;;;;;;5262021;27;20037;-96
2021/01/14 00:49:25;;;;;;;2.62;0.80;;;;;;;;;;5281631;27;20032;-96
2021/01/14 00:51:54;;;;;;;0.90;0.70;;;;;;;;;;5261722;27;20040;-96
2021/01/14 00:54:22;;;;;;;1.37;0.65;;;;;;;;;;5274341;27;20031;-96
2021/01/14 00:56:50;;;;;;;7.55;1.10;;;;;;;;;;5273515;27;20057;-96
2021/01/14 00:59:19;;;;;;;4.00;1.10;;;;;;;;;;5272824;27;20037;-95
2021/01/14 01:01:47;;;;;;;6.07;1.12;;;;;;;;;;5283654;27;20061;-94
2021/01/14 01:04:15;;;;;;;5.47;0.77;;;;;;;;;;5276103;27;20056;-94
2021/01/14 01:06:44;;;;;;;4.05;0.68;;;;;;;;;;5275322;27;20006;-96
2021/01/14 01:09:15;;;;;;;6.85;1.25;;;;;;;;;;5260117;27;20154;-96
2021/01/14 01:11:45;;;;;;;4.45;1.20;;;;;;;;;;5261270;27;20404;-96
2021/01/14 01:14:20;;;;;;;9.88;0.95;;;;;;;;;;5265314;27;20067;-96
2021/01/14 01:16:53;;;;;;;1.75;1.00;;;;;;;;;;5263658;27;20030;-96
2021/01/14 01:19:23;;;;;;;6.45;1.40;;;;;;;;;;5262875;27;20025;-96
2021/01/14 01:21:51;;;;;;;8.77;1.30;;;;;;;;;;5261201;27;20022;-96
2021/01/14 01:24:19;;;;;;;9.88;1.30;;;;;;;;;;5260740;27;20025;-96
2021/01/14 01:26:54;;;;;;;5.43;0.90;;;;;;;;;;5260624;27;20067;-96
2021/01/14 01:29:22;;;;;;;8.95;0.93;;;;;;;;;;5276607;27;20071;-96
2021/01/14 01:31:51;;;;;;;1.27;1.02;;;;;;;;;;5260454;27;20064;-96
2021/01/14 01:34:19;;;;;;;1.17;0.88;;;;;;;;;;5259750;27;20026;-96
2021/01/14 01:36:51;;;;;;;6.50;1.00;;;;;;;;;;5244730;27;20033;-96
2021/01/14 01:39:20;;;;;;;4.28;1.27;;;;;;;;;;5263083;27;20038;-96
2021/01/14 01:41:48;;;;;;;2.72;1.02;;;;;;;;;;5280256;27;20026;-96
2021/01/14 01:44:18;;;;;;;1.92;1.00;;;;;;;;;;5263325;27;20765;-96
2021/01/14 01:46:46;;;;;;;3.90;1.50;;;;;;;;;;5262150;27;20040;-96
2021/01/14 01:49:15;;;;;;;9.00;1.25;;;;;;;;;;5263729;27;20101;-96
2021/01/14 01:51:46;;;;;;;9.68;0.90;;;;;;;;;;5262329;27;20033;-96
2021/01/14 01:54:15;;;;;;;4.07;0.93;;;;;;;;;;5261873;27;20662;-96
2021/01/14 01:56:43;;;;;;;5.28;1.58;;;;;;;;;;5262063;27;20036;-95
2021/01/14 01:59:12;;;;;;;3.17;1.10;;;;;;;;;;5259942;27;20033;-95
2021/01/14 02:01:41;;;;;;;3.92;0.82;;;;;;;;;;5260017;27;20040;-96
2021/01/14 02:04:09;;;;;;;4.18;1.02;;;;;;;;;;5278565;27;20026;-95
2021/01/14 02:07:04;;;;;;;2.22;1.02;;;;;;;;;;5275134;27;20063;-96
2021/01/14 02:09:35;;;;;;;6.10;1.33;;;;;;;;;;5292767;27;20029;-96
2021/01/14 02:12:04;;;;;;;3.80;1.20;;;;;;;;;;5256427;27;20067;-94
2021/01/14 02:14:35;;;;;;;4.72;0.85;;;;;;;;;;5259791;27;20100;-96
2021/01/14 02:17:03;;;;;;;2.47;1.10;;;;;;;;;;5260184;27;20018;-94
2021/01/14 02:19:42;;;;;;;5.93;1.37;;;;;;;;;;5261370;27;20100;-95
2021/01/14 02:22:29;;;;;;;2.67;1.05;;;;;;;;;;5260917;27;20059;-95
2021/01/14 02:24:57;;;;;;;1.37;0.93;;;;;;;;;;5279184;27;20021;-95
2021/01/14 02:27:27;;;;;;;3.25;0.95;;;;;;;;;;5262015;27;20102;-96
2021/01/14 02:29:57;;;;;;;2.05;1.00;;;;;;;;;;5278375;27;20076;-95
2021/01/14 02:32:26;;;;;;;6.60;1.08;;;;;;;;;;5259965;27;20087;-95
2021/01/14 02:34:54;;;;;;;1.67;1.08;;;;;;;;;;5278019;27;20039;-95
2021/01/14 02:37:22;;;;;;;3.87;1.35;;;;;;;;;;5261258;27;20430;-96
2021/01/14 02:39:51;;;;;;;2.00;0.70;;;;;;;;;;5279242;27;20025;-96
2021/01/14 02:42:19;;;;;;;4.25;1.05;;;;;;;;;;5261739;27;20343;-96
2021/01/14 02:44:48;;;;;;;4.47;1.15;;;;;;;;;;5261510;27;20029;-95
2021/01/14 02:47:17;;;;;;;2.30;0.90;;;;;;;;;;5261694;27;20112;-96
2021/01/14 02:49:50;;;;;;;3.72;1.17;;;;;;;;;;5260976;27;20058;-95
2021/01/14 02:52:22;;;;;;;3.75;0.90;;;;;;;;;;5280019;27;20045;-96
2021/01/14 02:54:51;;;;;;;5.47;1.00;;;;;;;;;;5257705;27;20625;-95
2021/01/14 02:57:20;;;;;;;2.55;0.98;;;;;;;;;;5256877;27;20036;-96
2021/01/14 02:59:48;;;;;;;2.90;1.00;;;;;;;;;;5273366;27;20033;-95
2021/01/14 03:02:16;;;;;;;5.35;1.10;;;;;;;;;;5255723;27;20159;-96
2021/01/14 03:04:45;;;;;;;3.75;1.25;;;;;;;;;;5255606;27;20595;-95
2021/01/14 03:07:14;;;;;;;4.03;1.20;;;;;;;;;;5274662;27;20029;-95
2021/01/14 03:09:42;;;;;;;4.90;1.42;;;;;;;;;;5256579;27;20030;-96
2021/01/14 03:12:11;;;;;;;8.27;1.12;;;;;;;;;;5254428;27;20030;-96
2021/01/14 03:14:39;;;;;;;2.05;1.20;;;;;;;;;;5256517;27;20041;-96
2021/01/14 03:17:07;;;;;;;4.43;1.35;;;;;;;;;;5254640;27;20032;-96
2021/01/14 03:19:36;;;;;;;1.48;0.82;;;;;;;;;;5254890;27;20632;-96
2021/01/14 03:22:04;;;;;;;5.47;1.20;;;;;;;;;;5255435;27;20407;-96
2021/01/14 03:24:32;;;;;;;7.80;1.12;;;;;;;;;;5256514;27;20037;-96
2021/01/14 03:27:01;;;;;;;2.28;1.00;;;;;;;;;;5254789;27;20466;-96
2021/01/14 03:29:29;;;;;;;2.53;1.83;;;;;;;;;;5274673;27;20030;-96
2021/01/14 03:32:04;;;;;;;2.50;1.42;;;;;;;;;;5256625;27;20038;-96
2021/01/14 03:34:33;;;;;;;1.77;1.20;;;;;;;;;;5273448;27;20052;-96
2021/01/14 03:37:01;;;;;;;3.20;0.88;;;;;;;;;;5255651;27;20403;-96
2021/01/14 03:39:30;;;;;;;5.37;1.10;;;;;;;;;;5255109;27;20038;-96
2021/01/14 03:41:59;;;;;;;2.75;1.35;;;;;;;;;;5255712;27;20041;-96
2021/01/14 03:44:27;;;;;;;7.47;1.98;;;;;;;;;;5257672;27;20061;-96
2021/01/14 03:46:56;;;;;;;5.35;1.10;;;;;;;;;;5257932;27;20043;-96
2021/01/14 03:49:25;;;;;;;2.35;1.30;;;;;;;;;;5256011;27;20048;-96
2021/01/14 03:51:53;;;;;;;4.55;1.17;;;;;;;;;;5254487;27;20029;-96
2021/01/14 03:54:22;;;;;;;6.93;1.45;;;;;;;;;;5272015;27;20033;-96
2021/01/14 03:56:52;;;;;;;7.10;1.25;;;;;;;;;;5254335;27;20033;-96
2021/01/14 03:59:20;;;;;;;2.70;1.50;;;;;;;;;;5262361;27;20286;-96
2021/01/14 04:01:53;;;;;;;8.10;1.50;;;;;;;;;;5261967;27;20029;-96
2021/01/14 04:04:28;;;;;;;5.10;1.27;;;;;;;;;;5280565;27;20041;-96
2021/01/14 04:07:13;;;;;;;2.17;1.23;;;;;;;;;;5244453;27;20033;-96
2021/01/14 04:09:44;;;;;;;4.75;1.35;;;;;;;;;;5275538;27;20034;-96
2021/01/14 04:12:12;;;;;;;2.00;1.50;;;;;;;;;;5271505;27;20913;-96
2021/01/14 04:14:50;;;;;;;4.32;1.33;;;;;;;;;;5258033;27;20029;-96
2021/01/14 04:17:29;;;;;;;3.53;1.42;;;;;;;;;;5261372;27;20338;-96
2021/01/14 04:19:57;;;;;;;1.87;1.50;;;;;;;;;;5280854;27;20065;-96
2021/01/14 04:22:29;;;;;;;2.50;1.67;;;;;;;;;;5260589;27;20407;-96
2021/01/14 04:25:04;;;;;;;4.15;1.30;;;;;;;;;;5261441;27;20056;-96
2021/01/14 04:27:36;;;;;;;8.30;1.67;;;;;;;;;;5260829;27;20604;-96
2021/01/14 04:30:06;;;;;;;4.15;1.67;;;;;;;;;;5262278;27;20033;-96
2021/01/14 04:32:36;;;;;;;3.37;1.77;;;;;;;;;;5259295;27;20038;-95
2021/01/14 04:35:10;;;;;;;6.95;2.00;;;;;;;;;;5243710;27;20033;-95
2021/01/14 04:37:45;;;;;;;3.17;1.37;;;;;;;;;;5261574;27;20033;-96
2021/01/14 04:40:15;;;;;;;3.87;1.55;;;;;;;;;;5261024;27;20387;-95
2021/01/14 04:42:57;;;;;;;7.55;1.95;;;;;;;;;;5257902;27;20371;-95
2021/01/14 04:45:35;;;;;;;6.65;1.33;;;;;;;;;;5274762;27;20022;-95
2021/01/14 04:48:04;;;;;;;1.60;1.23;;;;;;;;;;5257740;27;20278;-96
2021/01/14 04:50:32;;;;;;;2.62;1.27;;;;;;;;;;5259646;27;20030;-96
2021/01/14 04:53:03;;;;;;;2.25;1.37;;;;;;;;;;5277922;27;20034;-95
2021/01/14 04:55:41;;;;;;;7.25;1.40;;;;;;;;;;5262572;27;20022;-96
2021/01/14 04:58:19;;;;;;;2.60;1.48;;;;;;;;;;5262957;27;20063;-96
2021/01/14 05:00:51;;;;;;;2.53;1.40;;;;;;;;;;5261614;27;20070;-96
2021/01/14 05:03:25;;;;;;;4.05;1.90;;;;;;;;;;5261342;27;20039;-95
2021/01/14 05:05:55;;;;;;;2.33;1.12;;;;;;;;;;5261459;27;20116;-95
2021/01/14 05:08:29;;;;;;;3.33;1.35;;;;;;;;;;5260792;27;20029;-95
2021/01/14 05:11:05;;;;;;;1.77;1.08;;;;;;;;;;5255919;27;20367;-95
2021/01/14 05:13:38;;;;;;;3.58;1.10;;;;;;;;;;5258185;27;20029;-95
2021/01/14 05:16:12;;;;;;;1.73;1.20;;;;;;;;;;5261941;27;20037;-96
2021/01/14 05:18:43;;;;;;;1.20;1.10;;;;;;;;;;5260540;27;20030;-94
2021/01/14 05:21:15;;;;;;;5.65;1.30;;;;;;;;;;5279065;27;20060;-95
2021/01/14 05:23:43;;;;;;;19.12;2.55;;;;;;;;;;5278628;27;20067;-95
2021/01/14 05:26:29;;;;;;;3.58;1.50;;;;;;;;;;5261448;27;20017;-94
2021/01/14 05:29:00;;;;;;;5.82;1.30;;;;;;;;;;5260646;27;20064;-94
2021/01/14 05:31:34;;;;;;;4.45;1.37;;;;;;;;;;5256002;27;20045;-96
2021/01/14 05:34:03;;;;;;;1.42;1.30;;;;;;;;;;5257188;27;20075;-96
2021/01/14 05:36:52;;;;;;;7.97;1.55;;;;;;;;;;5262561;27;20021;-96
2021/01/14 05:39:21;;;;;;;3.40;1.30;;;;;;;;;;5261945;27;20040;-96
2021/01/14 05:41:56;;;;;;;5.05;1.37;;;;;;;;;;5261818;27;20422;-96
2021/01/14 05:44:39;;;;;;;1.70;1.17;;;;;;;;;;5261668;27;20067;-96
2021/01/14 05:47:23;;;;;;;2.58;1.20;;;;;;;;;;5259652;27;20092;-96
2021/01/14 05:50:04;;;;;;;3.95;1.25;;;;;;;;;;5260821;27;20497;-96
2021/01/14 05:52:36;;;;;;;1.55;1.40;;;;;;;;;;5259782;27;20089;-96
2021/01/14 05:55:06;;;;;;;8.85;1.20;;;;;;;;;;5256778;27;20061;-96
2021/01/14 05:58:01;;;;;;;2.20;1.35;;;;;;;;;;5260669;27;20612;-96
2021/01/14 06:00:43;;;;;;;2.28;1.45;;;;;;;;;;5258772;27;20030;-96
2021/01/14 06:03:24;;;;;;;1.20;1.10;;;;;;;;;;5260409;27;20038;-96
2021/01/14 06:05:58;;;;;;;3.53;1.08;;;;;;;;;;5262407;27;20089;-96
2021/01/14 06:08:34;;;;;;;4.12;1.52;;;;;;;;;;5261523;27;20033;-96
2021/01/14 06:11:17;;;;;;;1.62;1.10;;;;;;;;;;5259416;27;20060;-96
2021/01/14 06:13:52;;;;;;;7.15;1.65;;;;;;;;;;5273931;27;20044;-96
2021/01/14 06:16:23;;;;;;;6.30;1.70;;;;;;;;;;5257353;27;20030;-96
2021/01/14 06:19:07;;;;;;;1.67;1.05;;;;;;;;;;5260081;27;20025;-96
2021/01/14 06:21:44;;;;;;;3.50;1.40;;;;;;;;;;5260257;27;20063;-96
2021/01/14 06:24:18;;;;;;;7.65;1.77;;;;;;;;;;5263087;27;20025;-96
2021/01/14 06:26:48;;;;;;;4.12;1.60;;;;;;;;;;5261955;27;20044;-96
2021/01/14 06:29:26;;;;;;;1.83;1.17;;;;;;;;;;5263659;27;20077;-96
2021/01/14 06:32:39;;;;;;;3.97;1.25;;;;;;;;;;5263806;27;20037;-96
2021/01/14 06:35:12;;;;;;;3.33;1.65;;;;;;;;;;5216011;27;20840;-96
2021/01/14 06:37:41;;;;;;;8.90;1.50;;;;;;;;;;5218581;27;20030;-96
2021/01/14 06:40:18;;;;;;;3.92;1.10;;;;;;;;;;5267829;27;20040;-96
2021/01/14 06:42:52;;;;;;;8.90;1.75;;;;;;;;;;5293961;27;20045;-96
2021/01/14 06:45:24;;;;;;;3.70;1.40;;;;;;;;;;5266636;27;20026;-96
2021/01/14 06:48:01;;;;;;;3.65;1.80;;;;;;;;;;5263223;27;20067;-96
2021/01/14 06:50:48;;;;;;;1.83;1.08;;;;;;;;;;5267754;27;20022;-96
2021/01/14 06:53:21;;;;;;;5.80;1.90;;;;;;;;;;5266539;27;20021;-96
2021/01/14 06:55:50;;;;;;;11.57;1.73;;;;;;;;;;5279984;27;20080;-96
2021/01/14 06:58:19;;;;;;;2.62;1.48;;;;;;;;;;5263005;27;20030;-96
2021/01/14 07:00:50;;;;;;;3.50;1.42;;;;;;;;;;5263757;27;20053;-96
2021/01/14 07:03:24;;;;;;;3.33;0.90;;;;;;;;;;5263571;27;20018;-96
2021/01/14 07:05:56;;;;;;;2.17;1.00;;;;;;;;;;5261025;27;20089;-96
2021/01/14 07:08:34;;;;;;;6.22;1.10;;;;;;;;;;5263454;27;20027;-96
2021/01/14 07:11:04;;;;;;;2.92;1.10;;;;;;;;;;5262008;27;20021;-96
2021/01/14 07:13:40;;;;;;;6.47;1.12;;;;;;;;;;5261953;27;20669;-96
2021/01/14 07:16:19;;;;;;;2.25;0.80;;;;;;;;;;5263133;27;20026;-96
2021/01/14 07:18:51;;;;;;;3.37;0.93;;;;;;;;;;5263295;27;20093;-96
2021/01/14 07:21:34;;;;;;;1.90;0.90;;;;;;;;;;5262381;27;20476;-96
2021/01/14 07:24:29;;;;;;;2.95;1.30;;;;;;;;;;5262237;27;20029;-96
2021/01/14 07:27:02;;;;;;;5.53;1.23;;;;;;;;;;5262613;27;20040;-95
2021/01/14 07:29:33;;;;;;;8.68;1.60;;;;;;;;;;5262109;27;20522;-96
2021/01/14 07:32:06;;;;;;;6.90;1.10;;;;;;;;;;5262638;27;20021;-95
2021/01/14 07:34:34;;;;;;;4.47;1.48;;;;;;;;;;5263020;27;20429;-96
2021/01/14 07:37:35;;;;;;;5.10;1.20;;;;;;;;;;5262256;27;20036;-95
2021/01/14 07:40:07;;;;;;;1.45;0.70;;;;;;;;;;5279590;27;20026;-95
2021/01/14 07:42:37;;;;;;;2.60;1.30;;;;;;;;;;5261672;27;20482;-95
2021/01/14 07:45:17;;;;;;;2.72;1.20;;;;;;;;;;5262529;27;20052;-96
2021/01/14 07:47:45;;;;;;;4.55;1.35;;;;;;;;;;5261634;27;20026;-95
2021/01/14 07:50:20;;;;;;;3.85;1.33;;;;;;;;;;5262582;27;20050;-95
2021/01/14 07:52:49;;;;;;;5.00;1.15;;;;;;;;;;5262007;27;20450;-96
2021/01/14 07:55:28;;;;;;;5.10;1.30;;;;;;;;;;5261960;27;20347;-96
2021/01/14 07:58:04;;;;;;;5.00;2.35;;;;;;;;;;5279862;27;20064;-95
2021/01/14 08:00:32;;;;;;;4.55;1.37;;;;;;;;;;5262376;27;20057;-95
2021/01/14 08:03:08;;;;;;;2.65;1.10;;;;;;;;;;5261306;27;20036;-95
2021/01/14 08:05:42;;;;;;;9.13;1.23;;;;;;;;;;5278950;27;20018;-95
2021/01/14 08:08:25;;;;;;;4.32;1.60;;;;;;;;;;5262750;27;20073;-96
2021/01/14 08:11:13;;;;;;;1.20;1.08;;;;;;;;;;5283412;27;20036;-96
2021/01/14 08:14:00;;;;;;;3.50;1.70;;;;;;;;;;5264839;27;20037;-96
2021/01/14 08:16:34;;;;;;;3.25;1.00;;;;;;;;;;5285534;27;20030;-97
2021/01/14 08:19:27;;;;;;;5.30;1.23;;;;;;;;;;5291957;27;20254;-96
2021/01/14 08:22:24;;;;;;;11.90;2.22;;;;;;;;;;5290465;27;20088;-96
2021/01/14 08:25:40;;;;;;;5.90;1.37;;;;;;;;;;5298405;27;20037;-96
2021/01/14 08:28:18;;;;;;;5.45;1.30;;;;;;;;;;5266780;27;20454;-95
2021/01/14 08:31:00;;;;;;;3.95;1.40;;;;;;;;;;5266493;27;20084;-96
2021/01/14 08:33:49;;;;;;;3.17;1.57;;;;;;;;;;5267946;27;20082;-96
2021/01/14 08:36:18;;;;;;;12.40;1.92;;;;;;;;;;5270199;27;20061;-96
2021/01/14 08:38:53;;;;;;;4.60;1.85;;;;;;;;;;5275541;27;20344;-96
2021/01/14 08:41:27;;;;;;;4.62;1.60;;;;;;;;;;5268357;27;20112;-96
2021/01/14 08:44:11;;;;;;;3.62;1.70;;;;;;;;;;5268787;27;20054;-96
2021/01/14 08:46:54;;;;;;;4.45;1.87;;;;;;;;;;5287255;27;20030;-96
2021/01/14 08:50:05;;;;;;;3.50;1.70;;;;;;;;;;5269335;27;20116;-96
2021/01/14 08:53:21;;;;;;;5.32;1.87;;;;;;;;;;5264586;27;20009;-96
2021/01/14 08:55:59;;;;;;;3.87;1.70;;;;;;;;;;5269203;27;20029;-96
2021/01/14 08:59:00;;;;;;;2.22;1.80;;;;;;;;;;5269487;27;20051;-96
2021/01/14 09:01:35;;;;;;;;;;;;;;;;;;5288248;27;20069;-96
2021/01/14 09:04:18;;;;;;;3.37;2.00;;;;;;;;;;5265650;27;19974;-96
2021/01/14 09:07:00;;;;;;;3.75;2.17;;;;;;;;;;5265305;27;20436;-96
2021/01/14 09:09:35;;;;;;;6.53;2.22;;;;;;;;;;5275801;27;20031;-96
2021/01/14 09:12:11;;;;;;;4.53;2.30;;;;;;;;;;5262605;27;20036;-95
2021/01/14 09:14:46;;;;;;;3.70;2.22;;;;;;;;;;5267892;27;20020;-96
2021/01/14 09:17:37;;;;;;;6.60;2.28;;;;;;;;;;5266046;27;20065;-96
2021/01/14 09:20:29;;;;;;;4.95;2.20;;;;;;;;;;5269057;27;20016;-96
2021/01/14 09:23:18;;;;;;;3.92;2.20;;;;;;;;;;5283091;27;20086;-96
2021/01/14 09:26:11;;;;;;;6.90;2.65;;;;;;;;;;5254331;27;20044;-96
2021/01/14 09:28:52;;;;;;;2.33;2.22;;;;;;;;;;5264330;27;20476;-96
2021/01/14 09:31:24;;;;;;;3.05;2.40;;;;;;;;;;5283122;27;20018;-96
2021/01/14 09:34:06;;;;;;;2.87;2.25;;;;;;;;;;5289709;27;20104;-96
2021/01/14 09:36:38;;;;;;;3.90;2.53;;;;;;;;;;5292210;27;20025;-96
2021/01/14 09:39:29;;;;;;;3.85;2.72;;;;;;;;;;5272640;27;20029;-96
2021/01/14 09:42:11;;;;;;;16.45;4.50;;;;;;;;;;5269340;27;20030;-96
2021/01/14 09:44:48;;;;;;;3.03;2.10;;;;;;;;;;5264872;27;20033;-96
2021/01/14 09:47:22;;;;;;;5.55;2.75;;;;;;;;;;5265099;27;20029;-96
2021/01/14 09:49:56;;;;;;;9.23;2.50;;;;;;;;;;5266415;27;20036;-96
2021/01/14 09:52:25;;;;;;;6.10;2.83;;;;;;;;;;5284292;27;20041;-96
2021/01/14 09:55:01;;;;;;;3.90;2.53;;;;;;;;;;5266488;27;20021;-96
2021/01/14 09:57:57;;;;;;;4.87;3.10;;;;;;;;;;5268477;27;20022;-96
2021/01/14 10:00:43;;;;;;;5.40;2.80;;;;;;;;;;5268339;27;20025;-96
2021/01/14 10:03:18;;;;;;;3.70;2.50;;;;;;;;;;5279960;27;20026;-96
2021/01/14 10:06:09;;;;;;;3.33;3.03;;;;;;;;;;5281638;27;20551;-96
2021/01/14 10:09:11;;;;;;;2.78;2.58;;;;;;;;;;5267585;27;20029;-96
2021/01/14 10:12:12;;;;;;;6.37;2.83;;;;;;;;;;5274767;27;20068;-95
2021/01/14 10:14:41;;;;;;;2.45;2.25;;;;;;;;;;5263717;27;20028;-94
2021/01/14 10:17:16;;;;;;;3.12;2.10;;;;;;;;;;5264515;27;20038;-95
2021/01/14 10:19:52;;;;;;;3.72;2.67;;;;;;;;;;5283605;27;20045;-96
2021/01/14 10:22:25;;;;;;;8.70;2.78;;;;;;;;;;5264542;27;20025;-94
2021/01/14 10:25:06;;;;;;;3.55;2.30;;;;;;;;;;5263366;27;20030;-95
2021/01/14 10:27:36;;;;;;;6.37;2.30;;;;;;;;;;5270077;27;20029;-95
2021/01/14 10:30:20;;;;;;;7.55;2.80;;;;;;;;;;5267513;27;20022;-96
2021/01/14 10:33:01;;;;;;;3.40;2.30;;;;;;;;;;5266891;27;20021;-96
2021/01/14 10:35:30;;;;;;;2.45;2.30;;;;;;;;;;5267058;27;20040;-96
2021/01/14 10:38:06;;;;;;;2.95;2.47;;;;;;;;;;5265779;27;20017;-96
2021/01/14 10:40:57;;;;;;;7.00;2.95;;;;;;;;;;5249929;27;20051;-94
2021/01/14 10:44:24;;;;;;;3.33;2.55;;;;;;;;;;5268893;27;20039;-95
2021/01/14 10:47:01;;;;;;;4.20;2.60;;;;;;;;;;5263363;27;20030;-95
2021/01/14 10:49:29;;;;;;;3.35;2.95;;;;;;;;;;5262674;27;20021;-96
2021/01/14 10:52:06;;;;;;;2.70;2.50;;;;;;;;;;5264412;27;20030;-96
2021/01/14 10:54:37;;;;;;;6.68;2.87;;;;;;;;;;5263743;27;20061;-95
2021/01/14 10:57:14;;;;;;;9.38;2.00;;;;;;;;;;5266442;27;20037;-96
2021/01/14 10:59:43;;;;;;;4.32;2.50;;;;;;;;;;5282256;27;20029;-96
2021/01/14 11:02:23;;;;;;;2.15;0.80;;;;;;;;;;5265118;27;20635;-96
2021/01/14 11:04:54;;;;;;;2.90;2.70;;;;;;;;;;5265959;27;20029;-95
2021/01/14 11:07:26;;;;;;;7.03;2.60;;;;;;;;;;5280976;27;20036;-93
2021/01/14 11:10:09;;;;;;;1.15;0.98;;;;;;;;;;5280904;27;20036;-96
2021/01/14 11:12:59;;;;;;;33.75;3.62;;;;;;;;;;5266072;27;20067;-96
2021/01/14 11:15:41;;;;;;;6.20;1.50;;;;;;;;;;5266734;27;20037;-95
2021/01/14 11:18:11;;;;;;;4.45;2.55;;;;;;;;;;5264823;27;20093;-96
2021/01/14 11:20:43;;;;;;;2.40;2.30;;;;;;;;;;5282063;27;20017;-96
2021/01/14 11:23:19;;;;;;;3.75;2.30;;;;;;;;;;5280508;27;20431;-96
2021/01/14 11:25:50;;;;;;;1.85;1.70;;;;;;;;;;5264560;27;20060;-96
2021/01/14 11:28:22;;;;;;;1.30;0.60;;;;;;;;;;5265973;27;20092;-96
2021/01/14 11:31:01;;;;;;;69.62;5.35;;;;;;;;;;5265265;27;20557;-96
2021/01/14 11:33:32;;;;;;;4.95;2.65;;;;;;;;;;5263495;27;20047;-96
2021/01/14 11:36:07;;;;;;;3.53;2.28;;;;;;;;;;5281821;27;20039;-96
2021/01/14 11:38:59;;;;;;;43.83;3.67;;;;;;;;;;5268926;27;20036;-95
2021/01/14 11:41:38;;;;;;;2.20;1.05;;;;;;;;;;5264901;27;20096;-96
2021/01/14 11:44:07;;;;;;;2.12;1.80;;;;;;;;;;5281904;27;20047;-96
2021/01/14 11:46:38;;;;;;;1.58;1.48;;;;;;;;;;5262795;27;20110;-94
2021/01/14 11:49:09;;;;;;;2.83;1.00;;;;;;;;;;5280952;27;20051;-94
2021/01/14 11:51:51;;;;;;;1.77;0.80;;;;;;;;;;5269847;27;20031;-95
2021/01/14 11:54:20;;;;;;;2.28;0.75;;;;;;;;;;5294409;27;20061;-92
2021/01/14 11:56:54;;;;;;;2.67;0.90;;;;;;;;;;5276329;27;20062;-94
2021/01/14 11:59:28;;;;;;;1.08;0.60;;;;;;;;;;5265610;27;20108;-95
2021/01/14 12:01:57;;;;;;;4.03;1.00;;;;;;;;;;5267998;27;20081;-96
2021/01/14 12:04:28;;;;;;;15.82;1.42;;;;;;;;;;5266973;27;20055;-95
2021/01/14 12:06:58;;;;;;;3.42;0.85;;;;;;;;;;5280633;27;20457;-95
2021/01/14 12:09:31;;;;;;;23.05;1.77;;;;;;;;;;5266640;27;20033;-95
2021/01/14 12:12:00;;;;;;;10.55;1.10;;;;;;;;;;5279850;27;20034;-94
2021/01/14 12:14:32;;;;;;;5.22;1.40;;;;;;;;;;5262184;27;20077;-96
2021/01/14 12:17:01;;;;;;;9.60;1.00;;;;;;;;;;5279580;27;20026;-96
2021/01/14 12:19:33;;;;;;;3.80;0.80;;;;;;;;;;5261780;27;20021;-96
2021/01/14 12:22:06;;;;;;;3.65;0.70;;;;;;;;;;5262903;27;20103;-96
2021/01/14 12:24:36;;;;;;;2.35;0.90;;;;;;;;;;5262280;27;20487;-96
2021/01/14 12:27:05;;;;;;;1.62;0.90;;;;;;;;;;5260219;27;20033;-96
2021/01/14 12:29:40;;;;;;;;;;;;;;;;;;5262696;27;20026;-96
2021/01/14 12:32:22;;;;;;;2.37;1.23;;;;;;;;;;5259535;27;19941;-95
2021/01/14 12:34:53;;;;;;;4.10;0.90;;;;;;;;;;5277933;27;20022;-96
2021/01/14 12:37:24;;;;;;;1.90;0.80;;;;;;;;;;5260583;27;20059;-95
2021/01/14 12:39:58;;;;;;;1.83;0.95;;;;;;;;;;5261484;27;20097;-95
2021/01/14 12:42:34;;;;;;;4.03;1.10;;;;;;;;;;5262909;27;20037;-96
2021/01/14 12:45:11;;;;;;;1.20;0.73;;;;;;;;;;5263145;27;20481;-96
2021/01/14 12:48:28;;;;;;;2.92;0.90;;;;;;;;;;5271454;27;20018;-96
2021/01/14 12:55:22;;;;;;;2.00;0.70;;;;;;;;;;5124359;27;20483;-96
2021/01/14 12:57:58;;;;;;;4.55;1.52;;;;;;;;;;5145659;27;20060;-96
2021/01/14 13:00:29;;;;;;;2.17;1.05;;;;;;;;;;5214301;27;20052;-95
2021/01/14 13:03:05;;;;;;;1.45;0.80;;;;;;;;;;5249691;27;20045;-95
2021/01/14 13:05:47;;;;;;;3.80;1.00;;;;;;;;;;5279905;27;20025;-96
2021/01/14 13:08:23;;;;;;;2.58;0.93;;;;;;;;;;5278921;27;20067;-96
2021/01/14 13:11:29;;;;;;;9.73;1.83;;;;;;;;;;5258575;27;20025;-95
2021/01/14 13:14:32;;;;;;;;;;;;;;;;;;;;;
2021/01/14 13:17:12;;;;;;;2.12;1.20;;;;;;;;;;5233153;27;20053;-95
2021/01/14 13:19:41;;;;;;;2.65;1.02;;;;;;;;;;5232185;27;20030;-93
2021/01/14 13:22:14;;;;;;;6.18;1.25;;;;;;;;;;5233528;27;20018;-95
2021/01/14 13:24:44;;;;;;;1.50;1.40;;;;;;;;;;5216497;27;20355;-95
2021/01/14 13:27:14;;;;;;;1.30;1.10;;;;;;;;;;5216794;27;20392;-96
2021/01/14 13:29:44;;;;;;;2.28;1.00;;;;;;;;;;5216022;27;20018;-96
2021/01/14 13:32:17;;;;;;;2.85;1.10;;;;;;;;;;5234337;27;20087;-96
2021/01/14 13:34:46;;;;;;;2.08;1.12;;;;;;;;;;5232987;27;20038;-94
2021/01/14 13:37:14;;;;;;;4.70;1.10;;;;;;;;;;5250932;27;20082;-96
2021/01/14 13:39:44;;;;;;;1.50;1.10;;;;;;;;;;5278253;27;20346;-96
2021/01/14 13:42:14;;;;;;;1.70;0.90;;;;;;;;;;5261158;27;20025;-96
2021/01/14 13:44:42;;;;;;;0.98;0.88;;;;;;;;;;5259637;27;20038;-95
2021/01/14 13:47:13;;;;;;;2.15;1.00;;;;;;;;;;5274314;27;20360;-95
2021/01/14 13:49:42;;;;;;;1.00;0.90;;;;;;;;;;5274291;27;20037;-94
2021/01/14 13:52:11;;;;;;;0.73;0.50;;;;;;;;;;5273915;27;20025;-94
2021/01/14 13:54:39;;;;;;;2.37;0.77;;;;;;;;;;5279458;27;20034;-96
2021/01/14 13:57:08;;;;;;;3.58;0.90;;;;;;;;;;5259890;27;20081;-94
2021/01/14 13:59:36;;;;;;;2.33;0.90;;;;;;;;;;5278040;27;20029;-93
2021/01/14 14:02:05;;;;;;;1.40;0.60;;;;;;;;;;5259711;27;20044;-94
2021/01/14 14:04:33;;;;;;;1.70;0.65;;;;;;;;;;5259225;27;20022;-96
2021/01/14 14:07:02;;;;;;;4.45;0.77;;;;;;;;;;5278167;27;20018;-95
2021/01/14 14:09:30;;;;;;;1.02;0.55;;;;;;;;;;5259661;27;20030;-95
2021/01/14 14:11:58;;;;;;;1.25;0.62;;;;;;;;;;5260114;27;20033;-95
2021/01/14 14:14:27;;;;;;;0.95;0.70;;;;;;;;;;5276460;27;20040;-95
2021/01/14 14:16:55;;;;;;;4.05;0.77;;;;;;;;;;5274982;27;20037;-96
2021/01/14 14:19:23;;;;;;;1.85;0.70;;;;;;;;;;5274717;27;20037;-93
2021/01/14 14:21:52;;;;;;;0.95;0.60;;;;;;;;;;5276535;27;20055;-95
2021/01/14 14:24:23;;;;;;;0.40;0.40;;;;;;;;;;5277407;27;20029;-93
2021/01/14 14:26:51;;;;;;;0.90;0.70;;;;;;;;;;5259216;27;20460;-94
2021/01/14 14:29:20;;;;;;;0.73;0.50;;;;;;;;;;5275809;27;20052;-96
2021/01/14 14:31:48;;;;;;;2.62;0.50;;;;;;;;;;5259049;27;20064;-94
2021/01/14 14:34:17;;;;;;;1.25;0.88;;;;;;;;;;5276198;27;20063;-94
2021/01/14 14:36:45;;;;;;;0.70;0.65;;;;;;;;;;5278105;27;20033;-93
2021/01/14 14:39:13;;;;;;;3.90;0.70;;;;;;;;;;5276033;27;20036;-95
2021/01/14 14:41:42;;;;;;;3.70;0.68;;;;;;;;;;5259899;27;20053;-95
2021/01/14 14:44:10;;;;;;;0.98;0.50;;;;;;;;;;5258292;27;20053;-95
2021/01/14 14:46:38;;;;;;;2.15;0.50;;;;;;;;;;5275894;27;20030;-95
2021/01/14 14:49:07;;;;;;;2.67;0.62;;;;;;;;;;5258198;27;20038;-95
2021/01/14 14:51:35;;;;;;;0.50;0.50;;;;;;;;;;5276690;27;20058;-95
2021/01/14 14:54:03;;;;;;;2.85;0.82;;;;;;;;;;5275740;27;20073;-94
2021/01/14 14:56:32;;;;;;;0.95;0.73;;;;;;;;;;5256513;27;20081;-95
2021/01/14 14:59:00;;;;;;;1.58;0.65;;;;;;;;;;5275647;27;20113;-95
2021/01/14 15:01:31;;;;;;;1.40;0.70;;;;;;;;;;5261138;27;20025;-96
2021/01/14 15:04:00;;;;;;;0.73;0.52;;;;;;;;;;5276721;27;20036;-95
2021/01/14 15:06:30;;;;;;;1.10;0.60;;;;;;;;;;5240940;27;20026;-95
2021/01/14 15:08:58;;;;;;;1.37;0.80;;;;;;;;;;5259516;27;20076;-95
2021/01/14 15:11:26;;;;;;;1.45;0.70;;;;;;;;;;5258977;27;20021;-96
2021/01/14 15:13:55;;;;;;;0.82;0.60;;;;;;;;;;5278014;27;20033;-96
2021/01/14 15:16:23;;;;;;;0.50;0.50;;;;;;;;;;5275526;27;20037;-95
2021/01/14 15:19:00;;;;;;;2.37;0.75;;;;;;;;;;5255948;27;20044;-94
2021/01/14 15:21:28;;;;;;;1.90;0.52;;;;;;;;;;5254736;27;20029;-95
2021/01/14 15:23:56;;;;;;;1.20;0.52;;;;;;;;;;5258818;27;20402;-96
2021/01/14 15:26:26;;;;;;;1.40;0.60;;;;;;;;;;5278438;27;20328;-94
2021/01/14 15:28:55;;;;;;;10.45;1.30;;;;;;;;;;5259414;27;20041;-95
2021/01/14 15:31:23;;;;;;;6.25;0.68;;;;;;;;;;5259683;27;20034;-94
2021/01/14 15:33:54;;;;;;;0.93;0.60;;;;;;;;;;5276768;27;20040;-93